Time;durP1;ratioP1;P1;durP2;ratioP2;P2;SDS_P1;SDS_P2;PMS_P1;PMS_P2;Temp;Humidity;BMP_temperature;BMP_pressure;BME280_temperature;BME280_humidity;BME280_pressure;Samples;Min_cycle;Max_cycle;Signal;HPM_P1;HPM_P2
2023/05/15 00:01:19;;;;;;;9.60;7.00;;;12.40;43.80;;;;;;5075309;28;20465;-67
2023/05/15 00:03:46;;;;;;;15.27;7.27;;;12.40;43.80;;;;;;5072625;28;20476;-67
2023/05/15 00:06:13;;;;;;;10.20;7.23;;;12.40;44.00;;;;;;5074064;28;20485;-67
2023/05/15 00:08:40;;;;;;;10.37;7.23;;;12.30;43.90;;;;;;5062637;28;20472;-67
2023/05/15 00:11:07;;;;;;;11.93;8.37;;;12.30;43.90;;;;;;5076123;28;20456;-67
2023/05/15 00:13:34;;;;;;;11.70;8.00;;;12.30;43.90;;;;;;5086325;28;20459;-67
2023/05/15 00:16:02;;;;;;;11.60;7.27;;;12.20;44.00;;;;;;5079816;28;20587;-67
2023/05/15 00:18:29;;;;;;;10.40;7.37;;;12.20;44.70;;;;;;5074645;28;20518;-67
2023/05/15 00:20:55;;;;;;;9.73;7.00;;;12.30;44.60;;;;;;5075994;28;20465;-67
2023/05/15 00:23:22;;;;;;;11.87;7.50;;;12.20;44.80;;;;;;5075323;28;20483;-68
2023/05/15 00:25:49;;;;;;;11.60;6.50;;;12.20;45.20;;;;;;5072883;28;20488;-67
2023/05/15 00:28:15;;;;;;;11.47;7.60;;;12.20;45.20;;;;;;5065271;28;20477;-67
2023/05/15 00:30:42;;;;;;;11.90;7.70;;;12.10;45.50;;;;;;5082652;28;20479;-67
2023/05/15 00:33:10;;;;;;;11.27;7.80;;;12.00;45.70;;;;;;5076953;28;20463;-67
2023/05/15 00:35:37;;;;;;;10.90;8.50;;;12.00;45.80;;;;;;5080932;28;20492;-67
2023/05/15 00:38:04;;;;;;;12.60;8.77;;;12.00;46.00;;;;;;5075069;28;20457;-67
2023/05/15 00:40:32;;;;;;;12.40;7.73;;;12.00;46.00;;;;;;5081710;28;20456;-67
2023/05/15 00:43:00;;;;;;;10.63;7.67;;;11.90;46.00;;;;;;5079826;28;20518;-67
2023/05/15 00:45:28;;;;;;;10.73;7.33;;;11.90;46.10;;;;;;5083852;28;20597;-67
2023/05/15 00:47:55;;;;;;;11.00;7.00;;;11.90;46.20;;;;;;5077720;28;20467;-67
2023/05/15 00:50:24;;;;;;;12.77;8.33;;;11.90;46.30;;;;;;5070701;28;20827;-68
2023/05/15 00:52:51;;;;;;;13.37;7.90;;;11.90;46.50;;;;;;5082194;28;20497;-67
2023/05/15 00:55:18;;;;;;;15.27;8.10;;;11.90;46.50;;;;;;5065629;28;20456;-67
2023/05/15 00:57:45;;;;;;;12.20;7.63;;;11.90;46.60;;;;;;5077479;28;20839;-67
2023/05/15 01:00:15;;;;;;;12.30;8.40;;;11.90;46.60;;;;;;5068096;28;20468;-67
2023/05/15 01:02:42;;;;;;;13.20;9.43;;;11.90;46.80;;;;;;5074532;28;20472;-67
2023/05/15 01:05:10;;;;;;;12.13;8.10;;;11.90;46.80;;;;;;5069655;28;20482;-67
2023/05/15 01:07:45;;;;;;;12.10;8.00;;;11.90;46.70;;;;;;5059289;28;20489;-67
2023/05/15 01:10:12;;;;;;;13.20;8.27;;;11.90;46.90;;;;;;5070416;28;20509;-67
2023/05/15 01:12:41;;;;;;;15.70;9.63;;;11.90;46.80;;;;;;5069689;28;20456;-67
2023/05/15 01:15:08;;;;;;;13.37;9.90;;;11.90;46.90;;;;;;5066507;28;20523;-67
2023/05/15 01:17:35;;;;;;;12.53;8.60;;;11.90;47.10;;;;;;5058792;28;20516;-67
2023/05/15 01:20:06;;;;;;;12.30;9.07;;;11.90;47.10;;;;;;5070940;28;20462;-67
2023/05/15 01:22:46;;;;;;;12.43;8.97;;;11.90;47.10;;;;;;5062362;28;21045;-67
2023/05/15 01:25:45;;;;;;;12.80;8.73;;;11.90;47.30;;;;;;5075008;28;20521;-69
2023/05/15 01:28:17;;;;;;;12.83;9.03;;;11.90;47.50;;;;;;5073776;28;20461;-67
2023/05/15 01:30:47;;;;;;;13.07;8.73;;;11.90;47.10;;;;;;5079609;28;21333;-67
2023/05/15 01:33:20;;;;;;;13.30;9.57;;;11.90;47.80;;;;;;5071257;28;20460;-67
2023/05/15 01:35:52;;;;;;;14.27;9.63;;;11.90;47.30;;;;;;5071698;28;20570;-67
2023/05/15 01:38:26;;;;;;;13.63;8.73;;;11.90;47.20;;;;;;5065718;28;20470;-67
2023/05/15 01:40:58;;;;;;;12.33;8.67;;;11.90;47.10;;;;;;5070618;28;20464;-67
2023/05/15 01:43:29;;;;;;;12.50;8.53;;;11.80;47.10;;;;;;5061699;28;20474;-67
2023/05/15 01:45:57;;;;;;;15.53;9.07;;;11.80;47.30;;;;;;5067669;28;21008;-67
2023/05/15 01:48:25;;;;;;;16.07;9.80;;;11.80;47.40;;;;;;5075200;28;20532;-67
2023/05/15 01:50:54;;;;;;;14.83;10.10;;;11.80;47.50;;;;;;5080466;28;20532;-67
2023/05/15 01:53:21;;;;;;;14.47;9.97;;;11.70;47.60;;;;;;5058236;28;20465;-67
2023/05/15 01:55:49;;;;;;;13.27;9.40;;;11.70;47.60;;;;;;5065318;28;20474;-67
2023/05/15 01:58:16;;;;;;;14.40;10.57;;;11.70;47.60;;;;;;5066818;28;20470;-67
2023/05/15 02:00:46;;;;;;;14.13;10.93;;;11.60;47.50;;;;;;5070916;28;20456;-67
2023/05/15 02:03:13;;;;;;;18.10;12.07;;;11.60;47.60;;;;;;5063559;28;20962;-67
2023/05/15 02:05:41;;;;;;;17.80;11.60;;;11.50;47.70;;;;;;5068498;28;20982;-67
2023/05/15 02:08:10;;;;;;;15.37;10.33;;;11.50;47.80;;;;;;5066162;28;20480;-67
2023/05/15 02:10:36;;;;;;;14.07;10.70;;;11.50;47.60;;;;;;5068867;28;20920;-67
2023/05/15 02:13:07;;;;;;;15.20;10.70;;;11.50;47.60;;;;;;5064468;28;21193;-70
2023/05/15 02:15:35;;;;;;;14.77;10.87;;;11.40;47.70;;;;;;5059063;28;20481;-67
2023/05/15 02:18:04;;;;;;;15.97;10.83;;;11.40;47.90;;;;;;5062056;28;20454;-67
2023/05/15 02:20:30;;;;;;;15.27;11.17;;;11.40;48.00;;;;;;5069007;28;20938;-67
2023/05/15 02:22:57;;;;;;;15.97;11.73;;;11.30;48.00;;;;;;5070406;28;20469;-67
2023/05/15 02:25:33;;;;;;;17.43;10.97;;;11.30;47.90;;;;;;5059689;28;20533;-67
2023/05/15 02:28:01;;;;;;;15.63;11.40;;;11.20;48.00;;;;;;5074064;28;20456;-68
2023/05/15 02:30:38;;;;;;;22.77;12.83;;;11.20;48.00;;;;;;5069669;28;20548;-67
2023/05/15 02:33:14;;;;;;;17.50;12.67;;;11.10;48.80;;;;;;5071742;28;20861;-67
2023/05/15 02:35:47;;;;;;;16.50;11.90;;;11.10;49.20;;;;;;5060589;28;20996;-67
2023/05/15 02:38:18;;;;;;;15.57;11.33;;;11.10;49.30;;;;;;5058401;28;20973;-67
2023/05/15 02:40:47;;;;;;;16.50;12.47;;;11.10;49.10;;;;;;5070251;28;20802;-67
2023/05/15 02:43:17;;;;;;;18.03;11.30;;;11.10;49.30;;;;;;5060320;28;20462;-69
2023/05/15 02:45:45;;;;;;;23.70;18.27;;;11.00;48.90;;;;;;5063198;28;20477;-67
2023/05/15 02:48:15;;;;;;;24.67;13.10;;;11.00;49.10;;;;;;5066087;28;20468;-67
2023/05/15 02:50:43;;;;;;;18.47;12.30;;;11.00;49.10;;;;;;5070485;28;20519;-68
2023/05/15 02:53:13;;;;;;;20.53;12.80;;;11.00;48.80;;;;;;5072341;28;20535;-67
2023/05/15 02:55:40;;;;;;;17.80;11.60;;;11.00;48.80;;;;;;5065427;28;20473;-67
2023/05/15 02:58:06;;;;;;;16.10;11.83;;;10.90;48.70;;;;;;5070637;28;20471;-67
2023/05/15 03:00:33;;;;;;;18.87;12.30;;;10.90;48.70;;;;;;5064466;28;20466;-67
2023/05/15 03:03:00;;;;;;;16.50;12.13;;;10.90;48.60;;;;;;5074410;28;20464;-67
2023/05/15 03:05:28;;;;;;;17.23;11.80;;;10.90;48.60;;;;;;5059789;28;20580;-67
2023/05/15 03:07:55;;;;;;;16.07;12.00;;;10.90;48.50;;;;;;5067879;28;20462;-67
2023/05/15 03:10:23;;;;;;;15.07;10.80;;;10.90;48.40;;;;;;5067236;28;20477;-67
2023/05/15 03:12:49;;;;;;;18.40;11.93;;;10.90;48.50;;;;;;5074586;28;20464;-67
2023/05/15 03:15:16;;;;;;;15.23;11.00;;;10.80;48.40;;;;;;5064677;28;20465;-67
2023/05/15 03:17:43;;;;;;;15.50;11.30;;;10.80;48.50;;;;;;5069013;28;20465;-67
2023/05/15 03:20:12;;;;;;;16.50;12.57;;;10.80;48.50;;;;;;5074561;28;20472;-67
2023/05/15 03:22:41;;;;;;;16.33;11.50;;;10.80;49.30;;;;;;5066494;28;20468;-66
2023/05/15 03:25:10;;;;;;;18.03;12.10;;;10.80;48.60;;;;;;5070458;28;20484;-67
2023/05/15 03:27:37;;;;;;;14.47;9.80;;;10.90;48.80;;;;;;5065179;28;20496;-65
2023/05/15 03:30:04;;;;;;;17.13;11.93;;;10.90;48.70;;;;;;5070776;28;20460;-67
2023/05/15 03:32:31;;;;;;;15.20;11.87;;;10.90;48.50;;;;;;5071787;28;20471;-67
2023/05/15 03:34:58;;;;;;;14.80;11.57;;;10.90;48.40;;;;;;5063135;28;20467;-67
2023/05/15 03:37:24;;;;;;;16.93;11.13;;;10.90;48.40;;;;;;5060313;28;20464;-67
2023/05/15 03:39:52;;;;;;;14.13;10.53;;;10.90;48.30;;;;;;5068125;28;20461;-67
2023/05/15 03:42:22;;;;;;;16.53;11.97;;;10.90;48.40;;;;;;5064936;28;20472;-67
2023/05/15 03:44:49;;;;;;;15.50;10.73;;;10.90;48.30;;;;;;5064964;28;20560;-67
2023/05/15 03:47:15;;;;;;;15.63;11.23;;;11.00;48.40;;;;;;5073672;28;20483;-67
2023/05/15 03:49:42;;;;;;;15.67;11.70;;;10.90;48.50;;;;;;5066308;28;20874;-67
2023/05/15 03:52:09;;;;;;;16.70;10.93;;;10.90;48.40;;;;;;5076107;28;20543;-67
2023/05/15 03:54:36;;;;;;;20.20;11.00;;;10.90;48.40;;;;;;5070744;28;20456;-67
2023/05/15 03:57:05;;;;;;;20.60;11.57;;;10.90;48.50;;;;;;5069400;28;20491;-69
2023/05/15 03:59:32;;;;;;;14.60;10.83;;;11.00;48.60;;;;;;5065309;28;20466;-69
2023/05/15 04:01:58;;;;;;;14.33;10.70;;;11.00;48.50;;;;;;5061106;28;20487;-69
2023/05/15 04:04:25;;;;;;;16.10;11.40;;;10.90;48.60;;;;;;5065265;28;20463;-69
2023/05/15 04:06:52;;;;;;;14.50;10.30;;;11.00;48.60;;;;;;5064622;28;20480;-69
2023/05/15 04:09:18;;;;;;;17.77;11.07;;;11.00;48.50;;;;;;5068774;28;20465;-69
2023/05/15 04:11:45;;;;;;;14.83;11.10;;;11.00;48.50;;;;;;5058940;28;20464;-69
2023/05/15 04:14:13;;;;;;;14.70;10.40;;;11.10;48.40;;;;;;5067381;28;20461;-69
2023/05/15 04:16:40;;;;;;;14.73;10.57;;;11.00;48.30;;;;;;5062206;28;20477;-70
2023/05/15 04:19:07;;;;;;;15.63;11.40;;;11.10;48.90;;;;;;5060212;28;20508;-69
2023/05/15 04:21:33;;;;;;;18.20;11.07;;;11.10;48.30;;;;;;5062366;28;20471;-68
2023/05/15 04:24:00;;;;;;;16.40;11.40;;;11.20;48.10;;;;;;5067012;28;20454;-68
2023/05/15 04:26:27;;;;;;;15.30;10.47;;;11.20;48.10;;;;;;5068962;28;20482;-68
2023/05/15 04:28:55;;;;;;;15.43;9.27;;;11.20;48.00;;;;;;5063071;28;20469;-67
2023/05/15 04:31:23;;;;;;;19.07;10.83;;;11.30;48.00;;;;;;5068975;28;20484;-67
2023/05/15 04:33:50;;;;;;;14.30;9.87;;;11.30;47.90;;;;;;5073243;28;20469;-67
2023/05/15 04:36:17;;;;;;;13.30;9.63;;;11.40;47.80;;;;;;5058795;28;20487;-69
2023/05/15 04:38:43;;;;;;;15.90;10.87;;;11.40;47.80;;;;;;5062957;28;20458;-69
2023/05/15 04:41:10;;;;;;;15.07;10.23;;;11.50;47.60;;;;;;5077308;22;20496;-66
2023/05/15 04:43:37;;;;;;;13.40;9.60;;;11.50;47.60;;;;;;5061832;28;20471;-66
2023/05/15 04:46:04;;;;;;;14.77;10.77;;;11.50;47.50;;;;;;5061065;28;20500;-67
2023/05/15 04:48:32;;;;;;;13.63;10.00;;;11.60;47.30;;;;;;5066175;28;20480;-66
2023/05/15 04:50:59;;;;;;;13.20;8.90;;;11.60;47.20;;;;;;5066286;28;20457;-65
2023/05/15 04:53:26;;;;;;;12.83;9.20;;;11.60;47.10;;;;;;5063141;28;20476;-65
2023/05/15 04:55:52;;;;;;;18.17;9.10;;;11.60;47.00;;;;;;5065983;28;20477;-65
2023/05/15 04:58:19;;;;;;;14.13;9.23;;;11.60;46.90;;;;;;5064400;28;20465;-66
2023/05/15 05:00:46;;;;;;;13.93;9.73;;;11.70;46.80;;;;;;5063287;28;20473;-64
2023/05/15 05:03:13;;;;;;;11.80;9.00;;;11.70;46.60;;;;;;5065297;28;20465;-64
2023/05/15 05:05:41;;;;;;;12.23;8.47;;;11.80;46.40;;;;;;5066886;28;20492;-65
2023/05/15 05:08:07;;;;;;;13.60;9.07;;;11.80;46.30;;;;;;5066471;28;20811;-69
2023/05/15 05:10:34;;;;;;;13.83;9.97;;;11.80;46.20;;;;;;5068679;28;20460;-69
2023/05/15 05:13:01;;;;;;;14.30;10.10;;;12.00;46.20;;;;;;5067738;28;20482;-70
2023/05/15 05:15:27;;;;;;;12.80;8.67;;;11.90;46.10;;;;;;5067463;28;20480;-69
2023/05/15 05:17:54;;;;;;;11.57;8.30;;;12.00;46.00;;;;;;5067886;28;20465;-69
2023/05/15 05:20:21;;;;;;;14.63;8.77;;;12.00;46.00;;;;;;5065996;28;20471;-69
2023/05/15 05:22:49;;;;;;;13.80;9.33;;;12.00;45.60;;;;;;5066532;28;20465;-70
2023/05/15 05:25:16;;;;;;;11.00;8.10;;;12.00;45.40;;;;;;5068378;28;20492;-66
2023/05/15 05:27:43;;;;;;;11.50;8.20;;;12.10;45.40;;;;;;5069625;28;20835;-65
2023/05/15 05:30:11;;;;;;;11.17;8.30;;;12.10;45.30;;;;;;5068524;28;20928;-65
2023/05/15 05:32:38;;;;;;;12.00;8.30;;;12.10;45.20;;;;;;5067930;28;20480;-65
2023/05/15 05:35:05;;;;;;;11.30;7.40;;;12.20;45.10;;;;;;5067550;28;20457;-65
2023/05/15 05:37:32;;;;;;;11.47;8.40;;;12.30;44.80;;;;;;5069067;28;20457;-65
2023/05/15 05:40:00;;;;;;;10.83;7.77;;;12.40;44.30;;;;;;5063274;28;20475;-64
2023/05/15 05:42:27;;;;;;;10.87;8.20;;;12.40;44.40;;;;;;5060983;28;20968;-64
2023/05/15 05:44:53;;;;;;;12.70;7.37;;;12.50;44.50;;;;;;5063415;28;20468;-64
2023/05/15 05:47:20;;;;;;;14.13;8.40;;;12.50;44.50;;;;;;5059895;28;20996;-65
2023/05/15 05:49:47;;;;;;;13.93;9.30;;;12.50;44.40;;;;;;5061013;28;20462;-68
2023/05/15 05:52:14;;;;;;;12.10;8.17;;;12.50;44.10;;;;;;5058890;28;20469;-66
2023/05/15 05:54:41;;;;;;;12.10;8.40;;;12.50;44.20;;;;;;5056695;28;20556;-67
2023/05/15 05:57:10;;;;;;;10.70;7.70;;;12.60;44.30;;;;;;5054006;28;20490;-66
2023/05/15 05:59:36;;;;;;;11.50;8.33;;;12.70;44.30;;;;;;5062869;28;20473;-67
2023/05/15 06:02:04;;;;;;;11.73;9.07;;;12.70;44.10;;;;;;5067345;28;20473;-67
2023/05/15 06:04:31;;;;;;;12.70;8.43;;;12.80;44.10;;;;;;5067412;28;20463;-67
2023/05/15 06:06:57;;;;;;;11.20;8.07;;;12.90;44.00;;;;;;5064999;28;20492;-67
2023/05/15 06:09:24;;;;;;;14.43;9.70;;;13.00;43.80;;;;;;5067559;28;20508;-67
2023/05/15 06:11:51;;;;;;;10.33;7.83;;;13.10;43.60;;;;;;5068124;28;20461;-67
2023/05/15 06:14:19;;;;;;;10.90;7.53;;;13.20;43.30;;;;;;5068086;28;20465;-67
2023/05/15 06:16:46;;;;;;;13.13;8.57;;;13.30;42.90;;;;;;5065288;28;21100;-67
2023/05/15 06:19:12;;;;;;;10.33;7.80;;;13.40;42.70;;;;;;5062638;28;20461;-66
2023/05/15 06:21:39;;;;;;;12.27;8.93;;;13.50;42.50;;;;;;5067849;28;20937;-66
2023/05/15 06:24:06;;;;;;;14.30;9.17;;;13.50;42.30;;;;;;5065958;28;20469;-66
2023/05/15 06:26:33;;;;;;;13.23;8.53;;;13.70;42.10;;;;;;5063041;28;20480;-70
2023/05/15 06:29:00;;;;;;;11.80;8.07;;;13.80;41.80;;;;;;5067262;28;20461;-69
2023/05/15 06:31:28;;;;;;;10.53;8.00;;;13.90;41.70;;;;;;5065855;28;21027;-71
2023/05/15 06:33:54;;;;;;;9.17;7.03;;;14.10;41.40;;;;;;5067512;28;20959;-70
2023/05/15 06:36:21;;;;;;;10.70;7.53;;;14.40;40.70;;;;;;5067013;28;20497;-69
2023/05/15 06:38:48;;;;;;;10.87;7.50;;;14.80;39.80;;;;;;5066597;28;20472;-69
2023/05/15 06:41:14;;;;;;;10.87;7.57;;;15.70;37.70;;;;;;5067941;28;20480;-69
2023/05/15 06:43:41;;;;;;;9.53;7.00;;;16.60;34.90;;;;;;5063112;28;20556;-69
2023/05/15 06:46:08;;;;;;;9.07;6.43;;;17.10;32.00;;;;;;5063694;28;20488;-71
2023/05/15 06:48:36;;;;;;;8.87;6.97;;;17.50;30.60;;;;;;5066622;28;20464;-69
2023/05/15 06:51:03;;;;;;;9.20;6.43;;;17.90;27.80;;;;;;5066812;28;20473;-69
2023/05/15 06:53:30;;;;;;;8.17;5.80;;;18.60;24.90;;;;;;5062639;28;20469;-68
2023/05/15 06:55:57;;;;;;;9.13;6.80;;;19.90;22.00;;;;;;5066223;28;20485;-70
2023/05/15 06:58:24;;;;;;;9.90;5.70;;;22.50;16.50;;;;;;5065427;28;20462;-70
2023/05/15 07:00:51;;;;;;;7.63;4.97;;;26.00;10.00;;;;;;5062805;28;21248;-68
2023/05/15 07:03:17;;;;;;;6.87;5.17;;;29.00;2.70;;;;;;5063990;28;20473;-68
2023/05/15 07:05:46;;;;;;;6.70;4.93;;;31.40;1.00;;;;;;5060213;28;21078;-68
2023/05/15 07:08:12;;;;;;;7.50;5.60;;;33.50;1.00;;;;;;5067734;28;20488;-68
2023/05/15 07:10:39;;;;;;;8.20;5.07;;;35.00;1.00;;;;;;5068530;28;20461;-68
2023/05/15 07:13:06;;;;;;;7.60;4.70;;;36.20;1.00;;;;;;5065553;28;20457;-68
2023/05/15 07:15:32;;;;;;;10.03;5.53;;;37.30;1.00;;;;;;5065401;28;21090;-68
2023/05/15 07:17:59;;;;;;;6.67;4.97;;;38.30;1.00;;;;;;5061797;28;20469;-71
2023/05/15 07:20:26;;;;;;;6.87;4.30;;;39.00;1.00;;;;;;5063434;28;20947;-70
2023/05/15 07:22:54;;;;;;;6.90;4.50;;;39.70;1.00;;;;;;5065140;28;20461;-69
2023/05/15 07:25:21;;;;;;;5.47;4.40;;;39.80;1.00;;;;;;5061369;28;20481;-68
2023/05/15 07:27:47;;;;;;;7.13;4.50;;;39.70;1.00;;;;;;5059153;28;20476;-69
2023/05/15 07:30:15;;;;;;;6.07;3.90;;;40.40;1.00;;;;;;5062042;28;20995;-69
2023/05/15 07:32:42;;;;;;;5.60;4.50;;;40.90;1.00;;;;;;5065644;28;20530;-69
2023/05/15 07:35:10;;;;;;;5.73;4.60;;;41.10;1.00;;;;;;5064788;28;20471;-69
2023/05/15 07:37:37;;;;;;;6.77;4.97;;;41.80;1.00;;;;;;5059199;28;20470;-70
2023/05/15 07:40:06;;;;;;;5.70;4.00;;;42.30;1.00;;;;;;5060494;28;20472;-68
2023/05/15 07:42:33;;;;;;;6.07;4.60;;;42.10;1.00;;;;;;5063678;28;20504;-69
2023/05/15 07:45:00;;;;;;;5.80;4.33;;;42.60;1.00;;;;;;5065538;28;20461;-69
2023/05/15 07:47:26;;;;;;;6.30;4.20;;;43.10;1.00;;;;;;5062074;28;20480;-68
2023/05/15 07:49:53;;;;;;;6.00;4.47;;;42.40;1.00;;;;;;5066122;28;20457;-69
2023/05/15 07:52:20;;;;;;;5.67;4.30;;;42.00;1.00;;;;;;5063005;28;20472;-69
2023/05/15 07:54:46;;;;;;;5.30;4.13;;;41.80;1.00;;;;;;5068539;28;20460;-71
2023/05/15 07:57:14;;;;;;;5.67;3.97;;;42.30;1.00;;;;;;5065842;28;20489;-69
2023/05/15 07:59:41;;;;;;;5.53;4.50;;;43.30;1.00;;;;;;5063909;28;20471;-70
2023/05/15 08:02:08;;;;;;;6.30;4.70;;;43.90;1.00;;;;;;5067430;28;20500;-69
2023/05/15 08:04:35;;;;;;;5.97;4.07;;;44.50;1.00;;;;;;5066482;28;20833;-69
2023/05/15 08:07:02;;;;;;;6.53;4.33;;;45.40;1.00;;;;;;5065860;28;20481;-70
2023/05/15 08:09:28;;;;;;;5.40;4.40;;;45.20;1.00;;;;;;5064846;28;20468;-69
2023/05/15 08:11:56;;;;;;;8.00;4.87;;;43.70;1.00;;;;;;5066077;28;20472;-70
2023/05/15 08:14:24;;;;;;;6.33;4.60;;;41.60;1.00;;;;;;5071634;28;20461;-70
2023/05/15 08:16:50;;;;;;;6.17;3.80;;;39.00;1.00;;;;;;5066997;28;20512;-69
2023/05/15 08:19:18;;;;;;;5.30;3.53;;;38.10;1.00;;;;;;5065223;28;20465;-69
2023/05/15 08:21:44;;;;;;;5.17;4.20;;;38.60;1.00;;;;;;5063953;28;21004;-69
2023/05/15 08:24:11;;;;;;;6.00;4.50;;;39.80;1.00;;;;;;5065697;28;20464;-69
2023/05/15 08:26:38;;;;;;;5.60;4.87;;;40.40;1.00;;;;;;5063897;28;20489;-69
2023/05/15 08:29:05;;;;;;;6.10;5.00;;;38.60;1.00;;;;;;5067280;28;20951;-68
2023/05/15 08:31:33;;;;;;;5.60;4.17;;;36.50;1.00;;;;;;5069082;28;21251;-68
2023/05/15 08:33:59;;;;;;;8.30;5.30;;;34.30;1.00;;;;;;5068059;28;20476;-68
2023/05/15 08:36:26;;;;;;;6.40;5.13;;;32.30;1.00;;;;;;5068096;28;20842;-68
2023/05/15 08:38:53;;;;;;;6.70;4.73;;;30.50;1.00;;;;;;5070949;28;20464;-71
2023/05/15 08:41:30;;;;;;;6.47;4.47;;;28.90;1.00;;;;;;5070882;28;20825;-69
2023/05/15 08:43:58;;;;;;;7.10;4.83;;;27.60;1.00;;;;;;5069192;28;20485;-68
2023/05/15 08:46:25;;;;;;;6.37;4.70;;;26.40;1.00;;;;;;5064401;28;20858;-67
2023/05/15 08:48:54;;;;;;;8.23;5.10;;;25.50;1.00;;;;;;5067587;28;20455;-71
2023/05/15 08:51:22;;;;;;;7.07;4.57;;;24.80;1.50;;;;;;5070146;28;20968;-71
2023/05/15 08:53:49;;;;;;;6.57;3.80;;;24.20;3.30;;;;;;5066642;28;20464;-71
2023/05/15 08:56:18;;;;;;;5.40;3.50;;;25.60;1.70;;;;;;5066987;28;20485;-70
2023/05/15 08:58:45;;;;;;;5.97;3.53;;;29.10;1.00;;;;;;5065574;28;20508;-70
2023/05/15 09:01:13;;;;;;;5.57;4.10;;;33.10;1.00;;;;;;5067173;28;20469;-71
2023/05/15 09:03:40;;;;;;;11.10;3.87;;;36.30;1.00;;;;;;5068572;28;20960;-71
2023/05/15 09:06:10;;;;;;;5.57;4.10;;;38.50;1.00;;;;;;5069106;28;20512;-73
2023/05/15 09:08:37;;;;;;;6.10;3.40;;;40.50;1.00;;;;;;5066978;28;20484;-71
2023/05/15 09:11:06;;;;;;;5.10;3.40;;;42.40;1.00;;;;;;5067876;28;20972;-72
2023/05/15 09:13:33;;;;;;;4.63;2.73;;;43.90;1.00;;;;;;5064685;28;20472;-71
2023/05/15 09:16:00;;;;;;;5.50;2.80;;;44.90;1.00;;;;;;5066961;28;20481;-68
2023/05/15 09:18:27;;;;;;;4.90;3.23;;;45.40;1.00;;;;;;5067975;28;20472;-67
2023/05/15 09:20:54;;;;;;;4.47;3.20;;;43.60;1.00;;;;;;5065860;28;20464;-66
2023/05/15 09:23:26;;;;;;;5.30;3.50;;;40.60;1.00;;;;;;5066101;28;20480;-67
2023/05/15 09:25:55;;;;;;;5.00;3.60;;;37.60;1.00;;;;;;5059881;28;20480;-68
2023/05/15 09:28:27;;;;;;;5.73;4.00;;;35.30;1.00;;;;;;5064157;28;20465;-69
2023/05/15 09:30:59;;;;;;;6.83;3.90;;;33.50;1.00;;;;;;5063478;28;20492;-68
2023/05/15 09:33:31;;;;;;;5.63;3.70;;;31.90;1.00;;;;;;5067617;28;22739;-68
2023/05/15 09:35:58;;;;;;;4.53;2.70;;;33.70;1.00;;;;;;5062321;28;20487;-68
2023/05/15 09:38:26;;;;;;;6.03;3.60;;;36.70;1.00;;;;;;5065581;28;20548;-68
2023/05/15 09:41:02;;;;;;;5.40;4.10;;;39.30;1.00;;;;;;5067929;28;20465;-68
2023/05/15 09:43:29;;;;;;;4.87;3.47;;;39.50;1.00;;;;;;5069518;28;20490;-68
2023/05/15 09:45:56;;;;;;;5.40;3.83;;;38.00;1.00;;;;;;5064949;28;20508;-68
2023/05/15 09:48:23;;;;;;;6.30;3.73;;;39.00;1.00;;;;;;5068024;28;20477;-68
2023/05/15 09:50:50;;;;;;;5.30;3.40;;;37.20;1.00;;;;;;5066991;28;20472;-68
2023/05/15 09:53:17;;;;;;;6.40;4.20;;;34.80;1.00;;;;;;5067499;28;20849;-68
2023/05/15 09:55:45;;;;;;;5.53;4.20;;;32.80;1.00;;;;;;5063156;28;20488;-68
2023/05/15 09:58:15;;;;;;;5.40;4.00;;;31.20;1.00;;;;;;5065554;28;20465;-68
2023/05/15 10:00:43;;;;;;;5.70;3.80;;;30.40;1.00;;;;;;5069017;28;20461;-68
2023/05/15 10:03:11;;;;;;;6.17;3.97;;;30.20;1.00;;;;;;5066235;28;20503;-68
2023/05/15 10:05:38;;;;;;;5.80;3.77;;;29.80;1.00;;;;;;5066766;28;20496;-67
2023/05/15 10:08:06;;;;;;;6.50;3.77;;;29.30;1.00;;;;;;5060136;28;20481;-67
2023/05/15 10:10:33;;;;;;;6.03;3.83;;;28.60;1.00;;;;;;5068782;28;20465;-67
2023/05/15 10:13:03;;;;;;;5.53;3.47;;;27.90;1.00;;;;;;5067954;28;20480;-67
2023/05/15 10:15:31;;;;;;;5.00;3.50;;;27.20;1.00;;;;;;5068863;28;21081;-67
2023/05/15 10:17:58;;;;;;;7.10;3.90;;;26.60;1.00;;;;;;5067408;28;20460;-67
2023/05/15 10:20:26;;;;;;;6.80;4.50;;;26.10;1.00;;;;;;5067837;28;20507;-67
2023/05/15 10:22:54;;;;;;;6.30;4.33;;;25.70;1.00;;;;;;5063517;28;20465;-65
2023/05/15 10:25:27;;;;;;;6.67;4.40;;;25.30;1.00;;;;;;5067021;28;20509;-64
2023/05/15 10:27:54;;;;;;;7.20;3.93;;;25.00;1.00;;;;;;5066769;28;20508;-65
2023/05/15 10:30:23;;;;;;;6.80;4.70;;;24.40;1.00;;;;;;5063824;28;20473;-64
2023/05/15 10:32:49;;;;;;;6.97;4.60;;;23.80;1.80;;;;;;5060882;28;20546;-63
2023/05/15 10:35:17;;;;;;;7.20;4.77;;;23.30;2.50;;;;;;5064678;28;20956;-64
2023/05/15 10:37:45;;;;;;;7.33;5.00;;;23.00;3.80;;;;;;5067588;28;20484;-63
2023/05/15 10:40:14;;;;;;;7.90;5.60;;;23.00;5.40;;;;;;5068444;28;20871;-64
2023/05/15 10:42:42;;;;;;;6.47;4.40;;;22.90;5.50;;;;;;5092988;22;20515;-67
2023/05/15 10:45:10;;;;;;;7.63;5.50;;;22.90;5.90;;;;;;5083577;28;20536;-67
2023/05/15 10:47:39;;;;;;;8.80;5.00;;;22.60;6.10;;;;;;5079318;28;20484;-66
2023/05/15 10:50:07;;;;;;;6.20;4.33;;;22.30;6.80;;;;;;5095624;28;20467;-68
2023/05/15 10:52:36;;;;;;;8.10;4.70;;;21.90;7.80;;;;;;5086342;28;21011;-67
2023/05/15 10:55:06;;;;;;;6.97;4.83;;;21.60;8.10;;;;;;5090034;28;20490;-68
2023/05/15 10:57:33;;;;;;;6.63;4.53;;;21.40;8.90;;;;;;5085228;28;20940;-67
2023/05/15 11:00:00;;;;;;;6.07;4.30;;;21.30;9.60;;;;;;5090212;28;20451;-67
2023/05/15 11:02:30;;;;;;;8.60;4.70;;;21.00;10.10;;;;;;5088812;28;21038;-67
2023/05/15 11:05:00;;;;;;;8.00;5.90;;;20.80;11.20;;;;;;5091754;28;20991;-67
2023/05/15 11:07:27;;;;;;;8.43;5.50;;;20.60;12.70;;;;;;5099895;28;20471;-67
2023/05/15 11:09:54;;;;;;;8.57;5.20;;;20.30;13.20;;;;;;5090635;28;20471;-66
2023/05/15 11:12:22;;;;;;;7.73;5.40;;;20.10;13.50;;;;;;5080171;28;20470;-68
2023/05/15 11:15:20;;;;;;;7.20;5.17;;;19.90;14.10;;;;;;5094656;28;20461;-71
2023/05/15 11:18:04;;;;;;;7.60;4.80;;;19.80;14.30;;;;;;5093810;28;21013;-71
2023/05/15 11:20:39;;;;;;;7.60;5.20;;;19.80;14.60;;;;;;5087080;28;20468;-71
2023/05/15 11:23:06;;;;;;;8.13;4.73;;;19.70;14.30;;;;;;5091115;28;20474;-70
2023/05/15 11:25:35;;;;;;;8.07;4.97;;;19.60;13.80;;;;;;5097024;28;20479;-70
2023/05/15 11:28:03;;;;;;;8.50;5.30;;;19.50;13.40;;;;;;5085353;28;20475;-71
2023/05/15 11:30:38;;;;;;;7.77;4.77;;;19.40;13.60;;;;;;5094264;27;20470;-71
2023/05/15 11:33:08;;;;;;;6.50;5.00;;;19.30;13.20;;;;;;5082092;28;20491;-69
2023/05/15 11:35:38;;;;;;;7.70;5.67;;;19.50;13.30;;;;;;5092956;28;20477;-71
2023/05/15 11:38:12;;;;;;;7.07;4.53;;;19.70;13.00;;;;;;5096879;28;20532;-69
2023/05/15 11:40:46;;;;;;;7.50;4.87;;;20.00;13.10;;;;;;5091697;28;20968;-68
2023/05/15 11:43:21;;;;;;;7.20;5.37;;;20.20;13.20;;;;;;5094260;28;20459;-71
2023/05/15 11:45:50;;;;;;;8.20;5.83;;;20.20;11.80;;;;;;5085219;28;20510;-70
2023/05/15 11:48:18;;;;;;;7.03;5.13;;;20.20;12.20;;;;;;5092650;28;20503;-70
2023/05/15 11:50:47;;;;;;;6.70;5.00;;;20.20;12.40;;;;;;5103331;28;20460;-70
2023/05/15 11:53:13;;;;;;;6.47;5.13;;;20.30;13.50;;;;;;5081591;28;20468;-71
2023/05/15 11:55:42;;;;;;;6.20;4.37;;;20.50;14.00;;;;;;5087356;28;20511;-71
2023/05/15 11:58:13;;;;;;;6.40;4.67;;;20.60;12.90;;;;;;5095627;28;20509;-72
2023/05/15 12:00:40;;;;;;;6.80;4.57;;;20.70;11.90;;;;;;5082050;28;20468;-72
2023/05/15 12:03:11;;;;;;;6.70;4.83;;;20.80;11.60;;;;;;5090995;28;20577;-70
2023/05/15 12:05:40;;;;;;;7.97;5.30;;;20.90;10.50;;;;;;5099917;28;20999;-71
2023/05/15 12:08:11;;;;;;;8.80;5.07;;;20.90;9.80;;;;;;5087522;28;20479;-69
2023/05/15 12:10:41;;;;;;;6.87;4.40;;;21.00;10.20;;;;;;5091244;28;20462;-71
2023/05/15 12:13:08;;;;;;;7.23;5.10;;;21.10;10.20;;;;;;5106024;28;20463;-72
2023/05/15 12:15:37;;;;;;;6.50;4.87;;;21.20;9.20;;;;;;5095497;28;20491;-72
2023/05/15 12:18:04;;;;;;;7.07;5.50;;;21.40;9.40;;;;;;5079474;28;21232;-72
2023/05/15 12:20:33;;;;;;;8.43;5.13;;;21.50;9.10;;;;;;5082592;28;20460;-73
2023/05/15 12:23:00;;;;;;;7.07;4.97;;;21.50;7.80;;;;;;5076112;28;20469;-72
2023/05/15 12:25:28;;;;;;;13.20;6.20;;;21.50;7.30;;;;;;5089865;28;20479;-74
2023/05/15 12:27:55;;;;;;;9.00;5.63;;;21.30;8.40;;;;;;5092482;28;20483;-73
2023/05/15 12:30:22;;;;;;;16.63;7.60;;;21.10;10.30;;;;;;5085378;28;20471;-73
2023/05/15 12:32:49;;;;;;;9.87;6.17;;;20.90;12.70;;;;;;5082381;28;20468;-73
2023/05/15 12:35:16;;;;;;;8.10;6.17;;;20.70;12.10;;;;;;5081057;28;20472;-73
2023/05/15 12:37:43;;;;;;;10.30;6.50;;;20.30;9.50;;;;;;5086389;28;20463;-74
2023/05/15 12:40:11;;;;;;;10.03;5.27;;;19.90;9.80;;;;;;5087192;28;20456;-72
2023/05/15 12:42:43;;;;;;;9.20;6.53;;;19.40;10.20;;;;;;5086404;28;20491;-72
2023/05/15 12:45:14;;;;;;;11.17;7.33;;;19.10;11.70;;;;;;5082708;28;20473;-73
2023/05/15 12:47:42;;;;;;;10.00;6.70;;;18.70;13.20;;;;;;5082817;28;20485;-72